sensor_id;sensor_type;location;lat;lon;timestamp;temperature;humidity
21568;DHT22;10944;42.590;12.630;2023-03-20T00:00:46;12.50;99.90
21568;DHT22;10944;42.590;12.630;2023-03-20T00:03:13;12.50;99.90
21568;DHT22;10944;42.590;12.630;2023-03-20T00:05:39;12.50;99.90
21568;DHT22;10944;42.590;12.630;2023-03-20T00:08:05;12.40;99.90
21568;DHT22;10944;42.590;12.630;2023-03-20T00:10:42;12.40;99.90
21568;DHT22;10944;42.590;12.630;2023-03-20T00:13:23;12.40;99.90
21568;DHT22;10944;42.590;12.630;2023-03-20T00:15:50;12.40;99.90
21568;DHT22;10944;42.590;12.630;2023-03-20T00:18:18;12.40;99.90
21568;DHT22;10944;42.590;12.630;2023-03-20T00:20:45;12.40;99.90
21568;DHT22;10944;42.590;12.630;2023-03-20T00:23:12;12.30;99.90
21568;DHT22;10944;42.590;12.630;2023-03-20T00:25:39;12.30;99.90
21568;DHT22;10944;42.590;12.630;2023-03-20T00:30:53;12.30;99.90
21568;DHT22;10944;42.590;12.630;2023-03-20T00:33:19;12.30;99.90
21568;DHT22;10944;42.590;12.630;2023-03-20T00:35:44;12.30;99.90
21568;DHT22;10944;42.590;12.630;2023-03-20T00:38:10;12.30;99.90
21568;DHT22;10944;42.590;12.630;2023-03-20T00:40:36;12.30;99.90
21568;DHT22;10944;42.590;12.630;2023-03-20T00:43:03;12.30;99.90
21568;DHT22;10944;42.590;12.630;2023-03-20T00:45:30;12.30;99.90
21568;DHT22;10944;42.590;12.630;2023-03-20T00:47:58;12.40;99.90
21568;DHT22;10944;42.590;12.630;2023-03-20T00:50:25;12.40;99.90
21568;DHT22;10944;42.590;12.630;2023-03-20T00:52:54;12.40;99.90
21568;DHT22;10944;42.590;12.630;2023-03-20T00:55:22;12.30;99.90
21568;DHT22;10944;42.590;12.630;2023-03-20T00:57:49;12.30;99.90
21568;DHT22;10944;42.590;12.630;2023-03-20T01:00:20;12.30;99.90
21568;DHT22;10944;42.590;12.630;2023-03-20T01:02:46;12.30;99.90
21568;DHT22;10944;42.590;12.630;2023-03-20T01:05:12;12.20;99.90
21568;DHT22;10944;42.590;12.630;2023-03-20T01:07:38;12.20;99.90
21568;DHT22;10944;42.590;12.630;2023-03-20T01:10:05;12.20;99.90
21568;DHT22;10944;42.590;12.630;2023-03-20T01:12:31;12.20;99.90
21568;DHT22;10944;42.590;12.630;2023-03-20T01:14:57;12.20;99.90
21568;DHT22;10944;42.590;12.630;2023-03-20T01:17:25;12.20;99.90
21568;DHT22;10944;42.590;12.630;2023-03-20T01:19:52;12.20;99.90
21568;DHT22;10944;42.590;12.630;2023-03-20T01:22:18;12.20;99.90
21568;DHT22;10944;42.590;12.630;2023-03-20T01:24:44;12.20;99.90
21568;DHT22;10944;42.590;12.630;2023-03-20T01:27:17;12.20;99.90
21568;DHT22;10944;42.590;12.630;2023-03-20T01:29:44;12.20;99.90
21568;DHT22;10944;42.590;12.630;2023-03-20T01:32:15;12.20;99.90
21568;DHT22;10944;42.590;12.630;2023-03-20T01:34:42;12.20;99.90
21568;DHT22;10944;42.590;12.630;2023-03-20T01:37:17;12.20;99.90
21568;DHT22;10944;42.590;12.630;2023-03-20T01:39:46;12.20;99.90
21568;DHT22;10944;42.590;12.630;2023-03-20T01:42:15;12.20;99.90
21568;DHT22;10944;42.590;12.630;2023-03-20T01:44:41;12.20;99.90
21568;DHT22;10944;42.590;12.630;2023-03-20T01:47:21;12.20;99.90
21568;DHT22;10944;42.590;12.630;2023-03-20T01:52:47;12.10;99.90
21568;DHT22;10944;42.590;12.630;2023-03-20T01:55:15;12.10;99.90
21568;DHT22;10944;42.590;12.630;2023-03-20T01:57:41;12.10;99.90
21568;DHT22;10944;42.590;12.630;2023-03-20T02:00:12;12.10;99.90
21568;DHT22;10944;42.590;12.630;2023-03-20T02:02:39;12.20;99.90
21568;DHT22;10944;42.590;12.630;2023-03-20T02:05:09;12.10;99.90
21568;DHT22;10944;42.590;12.630;2023-03-20T02:07:36;12.10;99.90
21568;DHT22;10944;42.590;12.630;2023-03-20T02:10:10;12.10;99.90
21568;DHT22;10944;42.590;12.630;2023-03-20T02:12:37;12.10;99.90
21568;DHT22;10944;42.590;12.630;2023-03-20T02:15:05;12.10;99.90
21568;DHT22;10944;42.590;12.630;2023-03-20T02:17:31;12.10;99.90
21568;DHT22;10944;42.590;12.630;2023-03-20T02:35:00;12.10;99.90
21568;DHT22;10944;42.590;12.630;2023-03-20T02:37:38;12.10;99.90
21568;DHT22;10944;42.590;12.630;2023-03-20T02:40:43;12.10;99.90
21568;DHT22;10944;42.590;12.630;2023-03-20T02:43:21;12.10;99.90
21568;DHT22;10944;42.590;12.630;2023-03-20T02:46:38;12.10;99.90
21568;DHT22;10944;42.590;12.630;2023-03-20T02:48:43;12.10;99.90
21568;DHT22;10944;42.590;12.630;2023-03-20T02:53:45;12.10;99.90
21568;DHT22;10944;42.590;12.630;2023-03-20T02:56:22;12.10;99.90
21568;DHT22;10944;42.590;12.630;2023-03-20T03:01:32;12.10;99.90
21568;DHT22;10944;42.590;12.630;2023-03-20T03:04:18;12.10;99.90
21568;DHT22;10944;42.590;12.630;2023-03-20T03:06:49;12.10;99.90
21568;DHT22;10944;42.590;12.630;2023-03-20T03:09:29;12.10;99.90
21568;DHT22;10944;42.590;12.630;2023-03-20T03:12:10;12.10;99.90
21568;DHT22;10944;42.590;12.630;2023-03-20T03:17:07;12.00;99.90
21568;DHT22;10944;42.590;12.630;2023-03-20T03:19:36;12.00;99.90
21568;DHT22;10944;42.590;12.630;2023-03-20T03:22:03;11.90;99.90
21568;DHT22;10944;42.590;12.630;2023-03-20T03:24:33;11.90;99.90
21568;DHT22;10944;42.590;12.630;2023-03-20T03:27:02;11.90;99.90
21568;DHT22;10944;42.590;12.630;2023-03-20T03:29:34;11.90;99.90
21568;DHT22;10944;42.590;12.630;2023-03-20T03:32:02;11.80;99.90
21568;DHT22;10944;42.590;12.630;2023-03-20T03:34:30;11.90;99.90
21568;DHT22;10944;42.590;12.630;2023-03-20T03:37:12;11.90;99.90
21568;DHT22;10944;42.590;12.630;2023-03-20T03:39:57;11.90;99.90
21568;DHT22;10944;42.590;12.630;2023-03-20T03:42:34;11.90;99.90
21568;DHT22;10944;42.590;12.630;2023-03-20T03:45:04;12.00;99.90
21568;DHT22;10944;42.590;12.630;2023-03-20T03:47:38;12.00;99.90
21568;DHT22;10944;42.590;12.630;2023-03-20T03:50:23;11.90;99.90
21568;DHT22;10944;42.590;12.630;2023-03-20T03:52:53;11.90;99.90
21568;DHT22;10944;42.590;12.630;2023-03-20T03:55:24;11.90;99.90
21568;DHT22;10944;42.590;12.630;2023-03-20T03:57:56;11.90;99.90
21568;DHT22;10944;42.590;12.630;2023-03-20T04:00:25;11.90;99.90
21568;DHT22;10944;42.590;12.630;2023-03-20T04:02:54;11.90;99.90
21568;DHT22;10944;42.590;12.630;2023-03-20T04:05:22;11.90;99.90
21568;DHT22;10944;42.590;12.630;2023-03-20T04:07:53;12.00;99.90
21568;DHT22;10944;42.590;12.630;2023-03-20T04:10:20;12.00;99.90
21568;DHT22;10944;42.590;12.630;2023-03-20T04:12:46;12.00;99.90
21568;DHT22;10944;42.590;12.630;2023-03-20T04:15:13;11.90;99.90
21568;DHT22;10944;42.590;12.630;2023-03-20T04:17:39;11.90;99.90
21568;DHT22;10944;42.590;12.630;2023-03-20T04:20:05;11.80;99.90
21568;DHT22;10944;42.590;12.630;2023-03-20T04:22:32;11.80;99.90
21568;DHT22;10944;42.590;12.630;2023-03-20T04:25:00;11.70;99.90
21568;DHT22;10944;42.590;12.630;2023-03-20T04:27:28;11.80;99.90
21568;DHT22;10944;42.590;12.630;2023-03-20T04:29:53;11.80;99.90
21568;DHT22;10944;42.590;12.630;2023-03-20T04:32:19;11.70;99.90
21568;DHT22;10944;42.590;12.630;2023-03-20T04:34:45;11.60;99.90
21568;DHT22;10944;42.590;12.630;2023-03-20T04:37:11;11.60;99.90
21568;DHT22;10944;42.590;12.630;2023-03-20T04:39:37;11.70;99.90
21568;DHT22;10944;42.590;12.630;2023-03-20T04:42:04;11.60;99.90
21568;DHT22;10944;42.590;12.630;2023-03-20T04:44:30;11.60;99.90
21568;DHT22;10944;42.590;12.630;2023-03-20T04:46:56;11.60;99.90
21568;DHT22;10944;42.590;12.630;2023-03-20T04:49:22;11.60;99.90
21568;DHT22;10944;42.590;12.630;2023-03-20T04:51:48;11.50;99.90
21568;DHT22;10944;42.590;12.630;2023-03-20T04:54:14;11.50;99.90
21568;DHT22;10944;42.590;12.630;2023-03-20T04:56:40;11.50;99.90
21568;DHT22;10944;42.590;12.630;2023-03-20T04:59:06;11.50;99.90
21568;DHT22;10944;42.590;12.630;2023-03-20T05:01:32;11.40;99.90
21568;DHT22;10944;42.590;12.630;2023-03-20T05:03:57;11.40;99.90
21568;DHT22;10944;42.590;12.630;2023-03-20T05:06:29;11.40;99.90
21568;DHT22;10944;42.590;12.630;2023-03-20T05:08:56;11.40;99.90
21568;DHT22;10944;42.590;12.630;2023-03-20T05:11:27;11.40;99.90
21568;DHT22;10944;42.590;12.630;2023-03-20T05:13:52;11.30;99.90
21568;DHT22;10944;42.590;12.630;2023-03-20T05:16:18;11.30;99.90
21568;DHT22;10944;42.590;12.630;2023-03-20T05:18:44;11.30;99.90
21568;DHT22;10944;42.590;12.630;2023-03-20T05:21:09;11.30;99.90
21568;DHT22;10944;42.590;12.630;2023-03-20T05:23:35;11.40;99.90
21568;DHT22;10944;42.590;12.630;2023-03-20T05:26:01;11.40;99.90
21568;DHT22;10944;42.590;12.630;2023-03-20T05:28:27;11.40;99.90
21568;DHT22;10944;42.590;12.630;2023-03-20T05:30:53;11.40;99.90
21568;DHT22;10944;42.590;12.630;2023-03-20T05:33:19;11.40;99.90
21568;DHT22;10944;42.590;12.630;2023-03-20T05:35:44;11.40;99.90
21568;DHT22;10944;42.590;12.630;2023-03-20T05:38:10;11.40;99.90
21568;DHT22;10944;42.590;12.630;2023-03-20T05:40:36;11.40;99.90
21568;DHT22;10944;42.590;12.630;2023-03-20T05:43:02;11.40;99.90
21568;DHT22;10944;42.590;12.630;2023-03-20T05:45:28;11.40;99.90
21568;DHT22;10944;42.590;12.630;2023-03-20T05:47:54;11.50;99.90
21568;DHT22;10944;42.590;12.630;2023-03-20T05:50:19;11.50;99.90
21568;DHT22;10944;42.590;12.630;2023-03-20T05:52:46;11.50;99.90
21568;DHT22;10944;42.590;12.630;2023-03-20T05:55:13;11.60;99.90
21568;DHT22;10944;42.590;12.630;2023-03-20T05:57:39;11.60;99.90
21568;DHT22;10944;42.590;12.630;2023-03-20T06:00:05;11.50;99.90
21568;DHT22;10944;42.590;12.630;2023-03-20T06:02:33;11.50;99.90
21568;DHT22;10944;42.590;12.630;2023-03-20T06:04:59;11.60;99.90
21568;DHT22;10944;42.590;12.630;2023-03-20T06:07:25;11.60;99.90
21568;DHT22;10944;42.590;12.630;2023-03-20T06:09:50;11.60;99.90
21568;DHT22;10944;42.590;12.630;2023-03-20T06:12:16;11.60;99.90
21568;DHT22;10944;42.590;12.630;2023-03-20T06:14:42;11.60;99.90
21568;DHT22;10944;42.590;12.630;2023-03-20T06:17:08;11.60;99.90
21568;DHT22;10944;42.590;12.630;2023-03-20T06:19:34;11.60;99.90
21568;DHT22;10944;42.590;12.630;2023-03-20T06:22:00;11.60;99.90
21568;DHT22;10944;42.590;12.630;2023-03-20T06:24:26;11.60;99.90
21568;DHT22;10944;42.590;12.630;2023-03-20T06:26:51;11.60;99.90
21568;DHT22;10944;42.590;12.630;2023-03-20T06:29:17;11.60;99.90
21568;DHT22;10944;42.590;12.630;2023-03-20T06:31:43;11.60;99.90
21568;DHT22;10944;42.590;12.630;2023-03-20T06:34:09;11.60;99.90
21568;DHT22;10944;42.590;12.630;2023-03-20T06:36:34;11.60;99.90
21568;DHT22;10944;42.590;12.630;2023-03-20T06:39:01;11.60;99.90
21568;DHT22;10944;42.590;12.630;2023-03-20T06:41:27;11.60;99.90
21568;DHT22;10944;42.590;12.630;2023-03-20T06:43:53;11.60;99.90
21568;DHT22;10944;42.590;12.630;2023-03-20T06:46:20;11.70;99.90
21568;DHT22;10944;42.590;12.630;2023-03-20T06:48:46;11.70;99.90
21568;DHT22;10944;42.590;12.630;2023-03-20T06:51:13;11.70;99.90
21568;DHT22;10944;42.590;12.630;2023-03-20T06:53:38;11.70;99.90
21568;DHT22;10944;42.590;12.630;2023-03-20T06:56:06;11.70;99.90
21568;DHT22;10944;42.590;12.630;2023-03-20T06:58:33;11.70;99.90
21568;DHT22;10944;42.590;12.630;2023-03-20T07:00:59;11.80;99.90
21568;DHT22;10944;42.590;12.630;2023-03-20T07:03:24;11.80;99.90
21568;DHT22;10944;42.590;12.630;2023-03-20T07:05:50;11.90;99.90
21568;DHT22;10944;42.590;12.630;2023-03-20T07:08:16;11.90;99.90
21568;DHT22;10944;42.590;12.630;2023-03-20T07:10:41;12.00;99.90
21568;DHT22;10944;42.590;12.630;2023-03-20T07:13:07;12.00;99.90
21568;DHT22;10944;42.590;12.630;2023-03-20T07:15:34;12.10;99.90
21568;DHT22;10944;42.590;12.630;2023-03-20T07:18:00;12.10;99.90
21568;DHT22;10944;42.590;12.630;2023-03-20T07:20:26;12.10;99.90
21568;DHT22;10944;42.590;12.630;2023-03-20T07:22:52;12.10;99.90
21568;DHT22;10944;42.590;12.630;2023-03-20T07:25:18;12.10;99.90
21568;DHT22;10944;42.590;12.630;2023-03-20T07:27:44;12.10;99.90
21568;DHT22;10944;42.590;12.630;2023-03-20T07:30:16;12.20;99.90
21568;DHT22;10944;42.590;12.630;2023-03-20T07:32:43;12.20;99.90
21568;DHT22;10944;42.590;12.630;2023-03-20T07:35:09;12.30;99.90
21568;DHT22;10944;42.590;12.630;2023-03-20T07:37:35;12.30;99.90
21568;DHT22;10944;42.590;12.630;2023-03-20T07:40:02;12.30;99.90
21568;DHT22;10944;42.590;12.630;2023-03-20T07:42:27;12.40;99.90
21568;DHT22;10944;42.590;12.630;2023-03-20T07:44:53;12.40;99.90
21568;DHT22;10944;42.590;12.630;2023-03-20T07:47:19;12.40;99.90
21568;DHT22;10944;42.590;12.630;2023-03-20T07:49:45;12.40;99.90
21568;DHT22;10944;42.590;12.630;2023-03-20T07:52:11;12.40;99.90
21568;DHT22;10944;42.590;12.630;2023-03-20T07:54:37;12.40;99.90
21568;DHT22;10944;42.590;12.630;2023-03-20T07:57:03;12.40;99.90
21568;DHT22;10944;42.590;12.630;2023-03-20T07:59:30;12.40;99.90
21568;DHT22;10944;42.590;12.630;2023-03-20T08:01:56;12.40;99.90
21568;DHT22;10944;42.590;12.630;2023-03-20T08:04:22;12.40;99.90
21568;DHT22;10944;42.590;12.630;2023-03-20T08:06:48;12.40;99.90
21568;DHT22;10944;42.590;12.630;2023-03-20T08:09:14;12.50;99.90
21568;DHT22;10944;42.590;12.630;2023-03-20T08:11:40;12.60;99.90
21568;DHT22;10944;42.590;12.630;2023-03-20T08:14:06;12.60;99.90
21568;DHT22;10944;42.590;12.630;2023-03-20T08:16:32;12.50;99.90
21568;DHT22;10944;42.590;12.630;2023-03-20T08:18:58;12.60;99.90
21568;DHT22;10944;42.590;12.630;2023-03-20T08:21:30;12.60;99.90
21568;DHT22;10944;42.590;12.630;2023-03-20T08:23:56;12.60;99.90
21568;DHT22;10944;42.590;12.630;2023-03-20T08:26:23;12.60;99.90
21568;DHT22;10944;42.590;12.630;2023-03-20T08:28:49;12.60;99.90
21568;DHT22;10944;42.590;12.630;2023-03-20T08:31:16;12.60;99.90
21568;DHT22;10944;42.590;12.630;2023-03-20T08:33:43;12.70;99.90
21568;DHT22;10944;42.590;12.630;2023-03-20T08:36:10;12.60;99.90
21568;DHT22;10944;42.590;12.630;2023-03-20T08:38:36;12.50;99.90
21568;DHT22;10944;42.590;12.630;2023-03-20T08:41:02;12.50;99.90
21568;DHT22;10944;42.590;12.630;2023-03-20T08:43:28;12.40;99.90
21568;DHT22;10944;42.590;12.630;2023-03-20T08:45:54;12.40;99.90
21568;DHT22;10944;42.590;12.630;2023-03-20T08:48:19;12.40;99.90
21568;DHT22;10944;42.590;12.630;2023-03-20T08:50:46;12.50;99.90
21568;DHT22;10944;42.590;12.630;2023-03-20T08:53:11;12.40;99.90
21568;DHT22;10944;42.590;12.630;2023-03-20T08:55:37;12.40;99.90
21568;DHT22;10944;42.590;12.630;2023-03-20T08:58:03;12.40;99.90
21568;DHT22;10944;42.590;12.630;2023-03-20T09:00:29;12.30;99.90
21568;DHT22;10944;42.590;12.630;2023-03-20T09:02:54;12.30;99.90
21568;DHT22;10944;42.590;12.630;2023-03-20T09:05:20;12.20;99.90
21568;DHT22;10944;42.590;12.630;2023-03-20T09:07:46;12.20;99.90
21568;DHT22;10944;42.590;12.630;2023-03-20T09:10:12;12.20;99.90
21568;DHT22;10944;42.590;12.630;2023-03-20T09:12:38;12.20;99.90
21568;DHT22;10944;42.590;12.630;2023-03-20T09:15:04;12.20;99.90
21568;DHT22;10944;42.590;12.630;2023-03-20T09:17:31;12.20;99.90
21568;DHT22;10944;42.590;12.630;2023-03-20T09:19:57;12.20;99.90
21568;DHT22;10944;42.590;12.630;2023-03-20T09:22:23;12.20;99.90
21568;DHT22;10944;42.590;12.630;2023-03-20T09:24:48;12.20;99.90
21568;DHT22;10944;42.590;12.630;2023-03-20T09:27:14;12.30;99.90
21568;DHT22;10944;42.590;12.630;2023-03-20T09:29:41;12.20;99.90
21568;DHT22;10944;42.590;12.630;2023-03-20T09:32:10;12.20;99.90
21568;DHT22;10944;42.590;12.630;2023-03-20T09:34:36;12.20;99.90
21568;DHT22;10944;42.590;12.630;2023-03-20T09:37:02;12.30;99.90
21568;DHT22;10944;42.590;12.630;2023-03-20T09:39:28;12.30;99.90
21568;DHT22;10944;42.590;12.630;2023-03-20T09:41:59;12.30;99.90
21568;DHT22;10944;42.590;12.630;2023-03-20T09:52:31;12.50;99.90
21568;DHT22;10944;42.590;12.630;2023-03-20T09:55:20;12.50;99.90
21568;DHT22;10944;42.590;12.630;2023-03-20T09:57:50;12.50;99.90
21568;DHT22;10944;42.590;12.630;2023-03-20T10:00:20;12.50;99.90
21568;DHT22;10944;42.590;12.630;2023-03-20T10:02:55;12.50;99.90
21568;DHT22;10944;42.590;12.630;2023-03-20T10:05:50;12.50;99.90
21568;DHT22;10944;42.590;12.630;2023-03-20T10:08:21;12.50;99.90
21568;DHT22;10944;42.590;12.630;2023-03-20T10:19:05;12.50;99.90
21568;DHT22;10944;42.590;12.630;2023-03-20T10:22:34;12.50;99.90
21568;DHT22;10944;42.590;12.630;2023-03-20T10:27:39;12.60;99.90
21568;DHT22;10944;42.590;12.630;2023-03-20T10:33:01;12.80;99.90
21568;DHT22;10944;42.590;12.630;2023-03-20T10:35:33;12.90;99.90
21568;DHT22;10944;42.590;12.630;2023-03-20T10:40:57;12.90;99.90
21568;DHT22;10944;42.590;12.630;2023-03-20T10:43:27;12.90;99.90
21568;DHT22;10944;42.590;12.630;2023-03-20T10:45:59;12.80;99.90
21568;DHT22;10944;42.590;12.630;2023-03-20T10:48:44;12.70;99.90
21568;DHT22;10944;42.590;12.630;2023-03-20T10:51:20;12.80;99.90
21568;DHT22;10944;42.590;12.630;2023-03-20T10:53:48;12.80;99.90
21568;DHT22;10944;42.590;12.630;2023-03-20T10:56:48;12.80;99.90
21568;DHT22;10944;42.590;12.630;2023-03-20T10:59:41;12.80;99.90
21568;DHT22;10944;42.590;12.630;2023-03-20T11:02:12;12.80;99.90
21568;DHT22;10944;42.590;12.630;2023-03-20T11:04:38;12.80;99.90
21568;DHT22;10944;42.590;12.630;2023-03-20T11:09:38;12.80;99.90
21568;DHT22;10944;42.590;12.630;2023-03-20T11:12:04;12.80;99.90
21568;DHT22;10944;42.590;12.630;2023-03-20T11:14:36;12.70;99.90
21568;DHT22;10944;42.590;12.630;2023-03-20T11:17:04;12.70;99.90
21568;DHT22;10944;42.590;12.630;2023-03-20T11:19:39;12.50;99.90
21568;DHT22;10944;42.590;12.630;2023-03-20T11:24:51;12.40;99.90
21568;DHT22;10944;42.590;12.630;2023-03-20T11:27:24;12.40;99.90
21568;DHT22;10944;42.590;12.630;2023-03-20T11:29:51;12.30;99.90
21568;DHT22;10944;42.590;12.630;2023-03-20T11:32:48;12.40;99.90
21568;DHT22;10944;42.590;12.630;2023-03-20T11:37:45;12.40;99.90
21568;DHT22;10944;42.590;12.630;2023-03-20T11:42:37;12.50;99.90
21568;DHT22;10944;42.590;12.630;2023-03-20T11:45:15;12.50;99.90
21568;DHT22;10944;42.590;12.630;2023-03-20T11:47:41;12.50;99.90
21568;DHT22;10944;42.590;12.630;2023-03-20T11:53:01;12.60;99.90
21568;DHT22;10944;42.590;12.630;2023-03-20T11:55:32;12.60;99.90
21568;DHT22;10944;42.590;12.630;2023-03-20T11:58:02;12.70;99.90
21568;DHT22;10944;42.590;12.630;2023-03-20T12:00:39;12.70;99.90
21568;DHT22;10944;42.590;12.630;2023-03-20T12:03:42;12.70;99.90
21568;DHT22;10944;42.590;12.630;2023-03-20T12:06:26;12.70;99.90
21568;DHT22;10944;42.590;12.630;2023-03-20T12:09:08;12.80;99.90
21568;DHT22;10944;42.590;12.630;2023-03-20T12:11:54;12.80;99.90
21568;DHT22;10944;42.590;12.630;2023-03-20T12:14:42;13.00;99.90
21568;DHT22;10944;42.590;12.630;2023-03-20T12:19:44;13.20;99.90
21568;DHT22;10944;42.590;12.630;2023-03-20T12:22:33;13.10;99.90
21568;DHT22;10944;42.590;12.630;2023-03-20T12:25:08;13.10;99.90
21568;DHT22;10944;42.590;12.630;2023-03-20T12:27:43;13.00;99.90
21568;DHT22;10944;42.590;12.630;2023-03-20T12:30:21;12.90;99.90
21568;DHT22;10944;42.590;12.630;2023-03-20T12:32:57;12.80;99.90
21568;DHT22;10944;42.590;12.630;2023-03-20T12:35:37;12.90;99.90
21568;DHT22;10944;42.590;12.630;2023-03-20T12:38:30;12.90;99.90
21568;DHT22;10944;42.590;12.630;2023-03-20T12:41:04;12.90;99.90
21568;DHT22;10944;42.590;12.630;2023-03-20T12:43:53;12.90;99.90
21568;DHT22;10944;42.590;12.630;2023-03-20T12:49:18;12.90;99.90
21568;DHT22;10944;42.590;12.630;2023-03-20T12:57:18;13.20;99.90
21568;DHT22;10944;42.590;12.630;2023-03-20T13:00:30;13.20;99.90
21568;DHT22;10944;42.590;12.630;2023-03-20T13:02:43;13.20;99.90
21568;DHT22;10944;42.590;12.630;2023-03-20T13:10:28;13.30;99.90
21568;DHT22;10944;42.590;12.630;2023-03-20T13:15:46;13.30;99.90
21568;DHT22;10944;42.590;12.630;2023-03-20T13:20:58;13.30;99.90
21568;DHT22;10944;42.590;12.630;2023-03-20T13:28:47;13.30;99.90
21568;DHT22;10944;42.590;12.630;2023-03-20T13:39:36;13.30;99.90
21568;DHT22;10944;42.590;12.630;2023-03-20T13:42:12;13.40;99.90
21568;DHT22;10944;42.590;12.630;2023-03-20T13:44:40;13.30;99.90
21568;DHT22;10944;42.590;12.630;2023-03-20T13:47:18;13.30;99.90
21568;DHT22;10944;42.590;12.630;2023-03-20T13:49:56;13.30;99.90
21568;DHT22;10944;42.590;12.630;2023-03-20T13:52:27;13.30;99.90
21568;DHT22;10944;42.590;12.630;2023-03-20T14:00:57;13.40;99.90
21568;DHT22;10944;42.590;12.630;2023-03-20T14:03:42;13.40;99.90
21568;DHT22;10944;42.590;12.630;2023-03-20T14:09:33;13.50;99.90
21568;DHT22;10944;42.590;12.630;2023-03-20T14:12:01;13.50;99.90
21568;DHT22;10944;42.590;12.630;2023-03-20T14:14:38;13.60;99.80
21568;DHT22;10944;42.590;12.630;2023-03-20T14:17:13;13.60;99.90
21568;DHT22;10944;42.590;12.630;2023-03-20T14:19:39;13.60;99.90
21568;DHT22;10944;42.590;12.630;2023-03-20T14:22:05;13.60;99.90
21568;DHT22;10944;42.590;12.630;2023-03-20T14:24:35;13.60;99.90
21568;DHT22;10944;42.590;12.630;2023-03-20T14:27:01;13.60;99.90
21568;DHT22;10944;42.590;12.630;2023-03-20T14:29:33;13.60;99.90
21568;DHT22;10944;42.590;12.630;2023-03-20T14:32:22;13.50;99.90
21568;DHT22;10944;42.590;12.630;2023-03-20T14:40:40;13.50;99.90
21568;DHT22;10944;42.590;12.630;2023-03-20T14:43:21;13.50;99.90
21568;DHT22;10944;42.590;12.630;2023-03-20T14:45:56;13.50;99.90
21568;DHT22;10944;42.590;12.630;2023-03-20T14:48:37;13.50;99.90
21568;DHT22;10944;42.590;12.630;2023-03-20T14:54:21;13.40;99.90
21568;DHT22;10944;42.590;12.630;2023-03-20T14:56:43;13.50;99.90
21568;DHT22;10944;42.590;12.630;2023-03-20T14:59:10;13.40;99.90
21568;DHT22;10944;42.590;12.630;2023-03-20T15:01:57;13.50;99.90
21568;DHT22;10944;42.590;12.630;2023-03-20T15:06:55;13.50;99.90
21568;DHT22;10944;42.590;12.630;2023-03-20T15:09:23;13.40;99.90
21568;DHT22;10944;42.590;12.630;2023-03-20T15:11:50;13.30;99.90
21568;DHT22;10944;42.590;12.630;2023-03-20T15:14:28;13.30;99.90
21568;DHT22;10944;42.590;12.630;2023-03-20T15:17:00;13.20;99.90
21568;DHT22;10944;42.590;12.630;2023-03-20T15:19:26;13.20;99.90
21568;DHT22;10944;42.590;12.630;2023-03-20T15:21:52;13.30;99.90
21568;DHT22;10944;42.590;12.630;2023-03-20T15:24:28;13.30;99.90
21568;DHT22;10944;42.590;12.630;2023-03-20T15:26:57;13.40;99.90
21568;DHT22;10944;42.590;12.630;2023-03-20T15:29:24;13.30;99.90
21568;DHT22;10944;42.590;12.630;2023-03-20T15:31:54;13.30;99.90
21568;DHT22;10944;42.590;12.630;2023-03-20T15:34:29;13.30;99.90
21568;DHT22;10944;42.590;12.630;2023-03-20T15:36:58;13.40;99.90
21568;DHT22;10944;42.590;12.630;2023-03-20T15:39:26;13.40;99.90
21568;DHT22;10944;42.590;12.630;2023-03-20T15:41:55;13.30;99.90
21568;DHT22;10944;42.590;12.630;2023-03-20T15:44:35;13.30;99.90
21568;DHT22;10944;42.590;12.630;2023-03-20T15:49:38;13.20;99.90
21568;DHT22;10944;42.590;12.630;2023-03-20T15:54:56;13.10;99.90
21568;DHT22;10944;42.590;12.630;2023-03-20T15:57:32;13.10;99.90
21568;DHT22;10944;42.590;12.630;2023-03-20T15:59:58;13.10;99.90
21568;DHT22;10944;42.590;12.630;2023-03-20T16:02:25;13.10;99.90
21568;DHT22;10944;42.590;12.630;2023-03-20T16:04:52;13.10;99.90
21568;DHT22;10944;42.590;12.630;2023-03-20T16:07:37;13.00;99.90
21568;DHT22;10944;42.590;12.630;2023-03-20T16:10:15;13.10;99.90
21568;DHT22;10944;42.590;12.630;2023-03-20T16:12:49;13.10;99.90
21568;DHT22;10944;42.590;12.630;2023-03-20T16:15:16;13.10;99.90
21568;DHT22;10944;42.590;12.630;2023-03-20T16:17:43;13.10;99.90
21568;DHT22;10944;42.590;12.630;2023-03-20T16:20:13;13.00;99.90
21568;DHT22;10944;42.590;12.630;2023-03-20T16:22:40;13.00;99.90
21568;DHT22;10944;42.590;12.630;2023-03-20T16:25:12;12.90;99.90
21568;DHT22;10944;42.590;12.630;2023-03-20T16:27:39;12.90;99.90
21568;DHT22;10944;42.590;12.630;2023-03-20T16:30:08;12.90;99.90
21568;DHT22;10944;42.590;12.630;2023-03-20T16:32:39;12.90;99.90
21568;DHT22;10944;42.590;12.630;2023-03-20T16:35:38;12.90;99.90
21568;DHT22;10944;42.590;12.630;2023-03-20T16:38:23;12.80;99.90
21568;DHT22;10944;42.590;12.630;2023-03-20T16:40:53;12.80;99.90
21568;DHT22;10944;42.590;12.630;2023-03-20T16:43:25;12.80;99.90
21568;DHT22;10944;42.590;12.630;2023-03-20T16:45:56;12.80;99.90
21568;DHT22;10944;42.590;12.630;2023-03-20T16:51:36;12.70;99.90
21568;DHT22;10944;42.590;12.630;2023-03-20T16:53:48;12.70;99.90
21568;DHT22;10944;42.590;12.630;2023-03-20T16:56:40;12.70;99.90
21568;DHT22;10944;42.590;12.630;2023-03-20T16:59:10;12.70;99.90
21568;DHT22;10944;42.590;12.630;2023-03-20T17:01:42;12.60;99.90
21568;DHT22;10944;42.590;12.630;2023-03-20T17:04:19;12.60;99.90
21568;DHT22;10944;42.590;12.630;2023-03-20T17:06:48;12.50;99.90
21568;DHT22;10944;42.590;12.630;2023-03-20T17:09:18;12.50;99.90
21568;DHT22;10944;42.590;12.630;2023-03-20T17:11:47;12.40;99.90
21568;DHT22;10944;42.590;12.630;2023-03-20T17:14:14;12.40;99.90
21568;DHT22;10944;42.590;12.630;2023-03-20T17:16:40;12.40;99.90
21568;DHT22;10944;42.590;12.630;2023-03-20T17:19:16;12.40;99.90
21568;DHT22;10944;42.590;12.630;2023-03-20T17:21:44;12.40;99.90
21568;DHT22;10944;42.590;12.630;2023-03-20T17:24:11;12.30;99.90
21568;DHT22;10944;42.590;12.630;2023-03-20T17:26:39;12.40;99.90
21568;DHT22;10944;42.590;12.630;2023-03-20T17:29:06;12.40;99.90
21568;DHT22;10944;42.590;12.630;2023-03-20T17:31:32;12.30;99.90
21568;DHT22;10944;42.590;12.630;2023-03-20T17:33:58;12.30;99.90
21568;DHT22;10944;42.590;12.630;2023-03-20T17:36:29;12.30;99.90
21568;DHT22;10944;42.590;12.630;2023-03-20T17:38:56;12.30;99.90
21568;DHT22;10944;42.590;12.630;2023-03-20T17:41:22;12.20;99.90
21568;DHT22;10944;42.590;12.630;2023-03-20T17:43:49;12.10;99.90